sensor_id;sensor_type;location;lat;lon;timestamp;P1;durP1;ratioP1;P2;durP2;ratioP2
71790;SDS011;59638;52.126;5.434;2023-07-02T00:01:47;7.63;;;1.90;;
71790;SDS011;59638;52.126;5.434;2023-07-02T00:04:15;6.20;;;2.13;;
71790;SDS011;59638;52.126;5.434;2023-07-02T00:06:43;9.23;;;2.07;;
71790;SDS011;59638;52.126;5.434;2023-07-02T00:09:10;4.53;;;1.75;;
71790;SDS011;59638;52.126;5.434;2023-07-02T00:11:41;8.43;;;1.98;;
71790;SDS011;59638;52.126;5.434;2023-07-02T00:14:14;5.03;;;1.65;;
71790;SDS011;59638;52.126;5.434;2023-07-02T00:16:44;6.97;;;1.77;;
71790;SDS011;59638;52.126;5.434;2023-07-02T00:19:13;11.10;;;2.57;;
71790;SDS011;59638;52.126;5.434;2023-07-02T00:21:40;4.53;;;1.42;;
71790;SDS011;59638;52.126;5.434;2023-07-02T00:24:07;7.55;;;1.77;;
71790;SDS011;59638;52.126;5.434;2023-07-02T00:26:37;7.63;;;1.70;;
71790;SDS011;59638;52.126;5.434;2023-07-02T00:29:04;6.30;;;1.83;;
71790;SDS011;59638;52.126;5.434;2023-07-02T00:31:32;8.27;;;2.20;;
71790;SDS011;59638;52.126;5.434;2023-07-02T00:33:59;5.72;;;2.10;;
71790;SDS011;59638;52.126;5.434;2023-07-02T00:36:27;3.35;;;1.90;;
71790;SDS011;59638;52.126;5.434;2023-07-02T00:38:55;7.32;;;1.88;;
71790;SDS011;59638;52.126;5.434;2023-07-02T00:41:22;4.88;;;1.55;;
71790;SDS011;59638;52.126;5.434;2023-07-02T00:43:49;9.03;;;2.10;;
71790;SDS011;59638;52.126;5.434;2023-07-02T00:46:16;8.85;;;1.80;;
71790;SDS011;59638;52.126;5.434;2023-07-02T00:48:49;10.48;;;2.20;;
71790;SDS011;59638;52.126;5.434;2023-07-02T00:51:18;6.72;;;2.45;;
71790;SDS011;59638;52.126;5.434;2023-07-02T00:53:47;5.93;;;1.80;;
71790;SDS011;59638;52.126;5.434;2023-07-02T00:56:15;7.67;;;1.40;;
71790;SDS011;59638;52.126;5.434;2023-07-02T00:58:43;7.20;;;2.45;;
71790;SDS011;59638;52.126;5.434;2023-07-02T01:01:15;6.13;;;1.77;;
71790;SDS011;59638;52.126;5.434;2023-07-02T01:04:02;4.82;;;1.85;;
71790;SDS011;59638;52.126;5.434;2023-07-02T01:08:59;8.13;;;1.93;;
71790;SDS011;59638;52.126;5.434;2023-07-02T01:11:28;9.23;;;2.50;;
71790;SDS011;59638;52.126;5.434;2023-07-02T01:13:59;5.80;;;2.50;;
71790;SDS011;59638;52.126;5.434;2023-07-02T01:16:29;4.53;;;2.03;;
71790;SDS011;59638;52.126;5.434;2023-07-02T01:18:59;5.18;;;2.03;;
71790;SDS011;59638;52.126;5.434;2023-07-02T01:21:29;4.37;;;1.67;;
71790;SDS011;59638;52.126;5.434;2023-07-02T01:23:59;4.47;;;2.00;;
71790;SDS011;59638;52.126;5.434;2023-07-02T01:26:30;9.05;;;2.60;;
71790;SDS011;59638;52.126;5.434;2023-07-02T01:29:00;4.40;;;2.30;;
71790;SDS011;59638;52.126;5.434;2023-07-02T01:31:44;9.15;;;1.90;;
71790;SDS011;59638;52.126;5.434;2023-07-02T01:34:12;9.70;;;1.97;;
71790;SDS011;59638;52.126;5.434;2023-07-02T01:36:39;8.52;;;2.17;;
71790;SDS011;59638;52.126;5.434;2023-07-02T01:39:06;9.15;;;1.98;;
71790;SDS011;59638;52.126;5.434;2023-07-02T01:41:37;6.22;;;1.80;;
71790;SDS011;59638;52.126;5.434;2023-07-02T01:44:19;7.32;;;2.30;;
71790;SDS011;59638;52.126;5.434;2023-07-02T01:46:47;8.00;;;3.43;;
71790;SDS011;59638;52.126;5.434;2023-07-02T01:49:18;13.27;;;2.72;;
71790;SDS011;59638;52.126;5.434;2023-07-02T01:51:48;10.18;;;2.45;;
71790;SDS011;59638;52.126;5.434;2023-07-02T01:54:15;7.57;;;2.05;;
71790;SDS011;59638;52.126;5.434;2023-07-02T01:56:41;10.82;;;2.60;;
71790;SDS011;59638;52.126;5.434;2023-07-02T01:59:08;14.17;;;3.20;;
71790;SDS011;59638;52.126;5.434;2023-07-02T02:01:35;10.68;;;2.88;;
71790;SDS011;59638;52.126;5.434;2023-07-02T02:04:01;9.40;;;2.33;;
71790;SDS011;59638;52.126;5.434;2023-07-02T02:06:28;7.60;;;2.60;;
71790;SDS011;59638;52.126;5.434;2023-07-02T02:08:54;9.82;;;2.65;;
71790;SDS011;59638;52.126;5.434;2023-07-02T02:11:21;8.73;;;2.97;;
71790;SDS011;59638;52.126;5.434;2023-07-02T02:13:47;7.20;;;2.60;;
71790;SDS011;59638;52.126;5.434;2023-07-02T02:16:15;10.57;;;3.25;;
71790;SDS011;59638;52.126;5.434;2023-07-02T02:18:41;9.82;;;2.65;;
71790;SDS011;59638;52.126;5.434;2023-07-02T02:21:08;11.30;;;2.83;;
71790;SDS011;59638;52.126;5.434;2023-07-02T02:23:34;8.10;;;2.60;;
71790;SDS011;59638;52.126;5.434;2023-07-02T02:26:01;7.30;;;2.65;;
71790;SDS011;59638;52.126;5.434;2023-07-02T02:28:27;8.73;;;2.75;;
71790;SDS011;59638;52.126;5.434;2023-07-02T02:30:54;9.02;;;3.30;;
71790;SDS011;59638;52.126;5.434;2023-07-02T02:33:21;8.32;;;2.80;;
71790;SDS011;59638;52.126;5.434;2023-07-02T02:35:48;10.20;;;2.90;;
71790;SDS011;59638;52.126;5.434;2023-07-02T02:38:15;10.50;;;3.42;;
71790;SDS011;59638;52.126;5.434;2023-07-02T02:40:41;12.73;;;3.08;;
71790;SDS011;59638;52.126;5.434;2023-07-02T02:43:08;7.75;;;3.08;;
71790;SDS011;59638;52.126;5.434;2023-07-02T02:45:34;12.35;;;2.80;;
71790;SDS011;59638;52.126;5.434;2023-07-02T02:48:01;15.63;;;2.93;;
71790;SDS011;59638;52.126;5.434;2023-07-02T02:50:27;7.43;;;2.50;;
71790;SDS011;59638;52.126;5.434;2023-07-02T02:52:54;8.95;;;2.88;;
71790;SDS011;59638;52.126;5.434;2023-07-02T02:55:20;14.20;;;2.97;;
71790;SDS011;59638;52.126;5.434;2023-07-02T02:57:47;8.90;;;3.20;;
71790;SDS011;59638;52.126;5.434;2023-07-02T03:00:13;11.00;;;3.47;;
71790;SDS011;59638;52.126;5.434;2023-07-02T03:02:40;11.30;;;3.63;;
71790;SDS011;59638;52.126;5.434;2023-07-02T03:05:07;13.85;;;2.90;;
71790;SDS011;59638;52.126;5.434;2023-07-02T03:07:34;11.45;;;3.78;;
71790;SDS011;59638;52.126;5.434;2023-07-02T03:10:01;10.32;;;3.88;;
71790;SDS011;59638;52.126;5.434;2023-07-02T03:12:28;12.13;;;3.20;;
71790;SDS011;59638;52.126;5.434;2023-07-02T03:14:54;11.65;;;3.67;;
71790;SDS011;59638;52.126;5.434;2023-07-02T03:17:21;11.70;;;3.42;;
71790;SDS011;59638;52.126;5.434;2023-07-02T03:19:48;8.65;;;3.67;;
71790;SDS011;59638;52.126;5.434;2023-07-02T03:22:15;10.75;;;3.33;;
71790;SDS011;59638;52.126;5.434;2023-07-02T03:24:41;8.30;;;3.17;;
71790;SDS011;59638;52.126;5.434;2023-07-02T03:27:08;10.73;;;3.50;;
71790;SDS011;59638;52.126;5.434;2023-07-02T03:29:35;13.60;;;4.57;;
71790;SDS011;59638;52.126;5.434;2023-07-02T03:32:01;10.23;;;3.58;;
71790;SDS011;59638;52.126;5.434;2023-07-02T03:34:28;10.45;;;3.70;;
71790;SDS011;59638;52.126;5.434;2023-07-02T03:36:54;8.53;;;3.10;;
71790;SDS011;59638;52.126;5.434;2023-07-02T03:39:21;11.95;;;3.28;;
71790;SDS011;59638;52.126;5.434;2023-07-02T03:41:47;9.68;;;3.50;;
71790;SDS011;59638;52.126;5.434;2023-07-02T03:44:14;16.42;;;4.32;;
71790;SDS011;59638;52.126;5.434;2023-07-02T03:46:40;7.53;;;3.22;;
71790;SDS011;59638;52.126;5.434;2023-07-02T03:49:07;10.03;;;2.50;;
71790;SDS011;59638;52.126;5.434;2023-07-02T03:51:34;14.93;;;3.65;;
71790;SDS011;59638;52.126;5.434;2023-07-02T03:54:00;19.88;;;4.63;;
71790;SDS011;59638;52.126;5.434;2023-07-02T03:56:27;16.23;;;3.90;;
71790;SDS011;59638;52.126;5.434;2023-07-02T03:58:53;10.38;;;3.63;;
71790;SDS011;59638;52.126;5.434;2023-07-02T04:01:20;7.53;;;3.33;;
71790;SDS011;59638;52.126;5.434;2023-07-02T04:03:50;12.55;;;3.28;;
71790;SDS011;59638;52.126;5.434;2023-07-02T04:06:18;11.68;;;3.83;;
71790;SDS011;59638;52.126;5.434;2023-07-02T04:08:45;10.05;;;3.28;;
71790;SDS011;59638;52.126;5.434;2023-07-02T04:11:11;10.20;;;4.47;;
71790;SDS011;59638;52.126;5.434;2023-07-02T04:13:38;11.63;;;3.63;;
71790;SDS011;59638;52.126;5.434;2023-07-02T04:16:05;15.50;;;3.78;;
71790;SDS011;59638;52.126;5.434;2023-07-02T04:18:32;17.10;;;3.85;;
71790;SDS011;59638;52.126;5.434;2023-07-02T04:20:58;15.73;;;3.65;;
71790;SDS011;59638;52.126;5.434;2023-07-02T04:23:25;11.90;;;3.25;;
71790;SDS011;59638;52.126;5.434;2023-07-02T04:25:52;19.40;;;3.80;;
71790;SDS011;59638;52.126;5.434;2023-07-02T04:28:39;11.80;;;3.80;;
71790;SDS011;59638;52.126;5.434;2023-07-02T04:31:05;9.00;;;3.38;;
71790;SDS011;59638;52.126;5.434;2023-07-02T04:33:32;11.00;;;3.47;;
71790;SDS011;59638;52.126;5.434;2023-07-02T04:36:02;15.75;;;4.53;;
71790;SDS011;59638;52.126;5.434;2023-07-02T04:38:30;12.83;;;3.53;;
71790;SDS011;59638;52.126;5.434;2023-07-02T04:40:56;10.93;;;3.35;;
71790;SDS011;59638;52.126;5.434;2023-07-02T04:43:31;14.27;;;3.95;;
71790;SDS011;59638;52.126;5.434;2023-07-02T04:45:59;12.70;;;3.10;;
71790;SDS011;59638;52.126;5.434;2023-07-02T04:48:26;6.88;;;3.50;;
71790;SDS011;59638;52.126;5.434;2023-07-02T04:50:53;13.00;;;3.63;;
71790;SDS011;59638;52.126;5.434;2023-07-02T04:53:20;16.88;;;3.80;;
71790;SDS011;59638;52.126;5.434;2023-07-02T04:55:46;18.58;;;4.82;;
71790;SDS011;59638;52.126;5.434;2023-07-02T04:58:13;16.35;;;4.30;;
71790;SDS011;59638;52.126;5.434;2023-07-02T05:00:39;18.83;;;4.30;;
71790;SDS011;59638;52.126;5.434;2023-07-02T05:03:06;9.23;;;4.33;;
71790;SDS011;59638;52.126;5.434;2023-07-02T05:05:32;18.30;;;3.85;;
71790;SDS011;59638;52.126;5.434;2023-07-02T05:07:59;11.65;;;4.28;;
71790;SDS011;59638;52.126;5.434;2023-07-02T05:10:25;15.38;;;4.50;;
71790;SDS011;59638;52.126;5.434;2023-07-02T05:12:52;12.40;;;4.80;;
71790;SDS011;59638;52.126;5.434;2023-07-02T05:15:18;15.93;;;4.07;;
71790;SDS011;59638;52.126;5.434;2023-07-02T05:17:45;18.20;;;4.05;;
71790;SDS011;59638;52.126;5.434;2023-07-02T05:20:11;15.20;;;4.80;;
71790;SDS011;59638;52.126;5.434;2023-07-02T05:22:38;16.45;;;4.22;;
71790;SDS011;59638;52.126;5.434;2023-07-02T05:25:05;19.67;;;4.45;;
71790;SDS011;59638;52.126;5.434;2023-07-02T05:27:31;14.63;;;3.67;;
71790;SDS011;59638;52.126;5.434;2023-07-02T05:29:58;15.82;;;3.53;;
71790;SDS011;59638;52.126;5.434;2023-07-02T05:32:25;13.55;;;4.32;;
71790;SDS011;59638;52.126;5.434;2023-07-02T05:34:51;11.73;;;3.90;;
71790;SDS011;59638;52.126;5.434;2023-07-02T05:37:18;18.23;;;4.82;;
71790;SDS011;59638;52.126;5.434;2023-07-02T05:39:45;11.77;;;3.50;;
71790;SDS011;59638;52.126;5.434;2023-07-02T05:42:11;12.05;;;3.47;;
71790;SDS011;59638;52.126;5.434;2023-07-02T05:44:38;18.27;;;4.05;;
71790;SDS011;59638;52.126;5.434;2023-07-02T05:47:04;17.30;;;4.25;;
71790;SDS011;59638;52.126;5.434;2023-07-02T05:49:31;13.88;;;3.42;;
71790;SDS011;59638;52.126;5.434;2023-07-02T05:51:57;15.83;;;4.23;;
71790;SDS011;59638;52.126;5.434;2023-07-02T05:54:24;17.55;;;4.35;;
71790;SDS011;59638;52.126;5.434;2023-07-02T05:56:50;17.00;;;3.90;;
71790;SDS011;59638;52.126;5.434;2023-07-02T05:59:16;12.27;;;4.18;;
71790;SDS011;59638;52.126;5.434;2023-07-02T06:01:45;11.88;;;3.33;;
71790;SDS011;59638;52.126;5.434;2023-07-02T06:04:11;20.10;;;3.60;;
71790;SDS011;59638;52.126;5.434;2023-07-02T06:06:38;17.83;;;4.00;;
71790;SDS011;59638;52.126;5.434;2023-07-02T06:09:04;14.07;;;4.07;;
71790;SDS011;59638;52.126;5.434;2023-07-02T06:11:31;14.82;;;3.20;;
71790;SDS011;59638;52.126;5.434;2023-07-02T06:13:57;15.70;;;4.30;;
71790;SDS011;59638;52.126;5.434;2023-07-02T06:16:24;13.37;;;3.03;;
71790;SDS011;59638;52.126;5.434;2023-07-02T06:18:51;10.75;;;3.45;;
71790;SDS011;59638;52.126;5.434;2023-07-02T06:21:18;15.45;;;4.20;;
71790;SDS011;59638;52.126;5.434;2023-07-02T06:23:45;6.53;;;2.80;;
71790;SDS011;59638;52.126;5.434;2023-07-02T06:26:13;8.98;;;3.10;;
71790;SDS011;59638;52.126;5.434;2023-07-02T06:28:39;17.47;;;3.20;;
71790;SDS011;59638;52.126;5.434;2023-07-02T06:31:06;9.93;;;2.83;;
71790;SDS011;59638;52.126;5.434;2023-07-02T06:33:33;9.30;;;3.28;;
71790;SDS011;59638;52.126;5.434;2023-07-02T06:35:59;11.10;;;3.15;;
71790;SDS011;59638;52.126;5.434;2023-07-02T06:38:25;11.15;;;2.85;;
71790;SDS011;59638;52.126;5.434;2023-07-02T06:40:52;8.83;;;1.93;;
71790;SDS011;59638;52.126;5.434;2023-07-02T06:43:18;11.85;;;2.63;;
71790;SDS011;59638;52.126;5.434;2023-07-02T06:45:45;17.58;;;3.55;;
71790;SDS011;59638;52.126;5.434;2023-07-02T06:48:11;13.98;;;2.90;;
71790;SDS011;59638;52.126;5.434;2023-07-02T06:50:42;14.23;;;3.17;;
71790;SDS011;59638;52.126;5.434;2023-07-02T06:53:13;7.47;;;2.70;;
71790;SDS011;59638;52.126;5.434;2023-07-02T06:55:39;6.32;;;2.58;;
71790;SDS011;59638;52.126;5.434;2023-07-02T06:58:06;6.68;;;2.25;;
71790;SDS011;59638;52.126;5.434;2023-07-02T07:00:33;9.13;;;2.03;;
71790;SDS011;59638;52.126;5.434;2023-07-02T07:03:03;10.80;;;2.60;;
71790;SDS011;59638;52.126;5.434;2023-07-02T07:05:30;9.07;;;2.93;;
71790;SDS011;59638;52.126;5.434;2023-07-02T07:07:59;11.10;;;2.47;;
71790;SDS011;59638;52.126;5.434;2023-07-02T07:10:27;11.73;;;2.80;;
71790;SDS011;59638;52.126;5.434;2023-07-02T07:12:53;12.73;;;2.25;;
71790;SDS011;59638;52.126;5.434;2023-07-02T07:15:20;9.18;;;2.28;;
71790;SDS011;59638;52.126;5.434;2023-07-02T07:17:46;11.50;;;2.40;;
71790;SDS011;59638;52.126;5.434;2023-07-02T07:20:13;9.30;;;2.42;;
71790;SDS011;59638;52.126;5.434;2023-07-02T07:22:40;7.18;;;2.30;;
71790;SDS011;59638;52.126;5.434;2023-07-02T07:25:07;9.80;;;2.88;;
71790;SDS011;59638;52.126;5.434;2023-07-02T07:27:34;7.85;;;2.88;;
71790;SDS011;59638;52.126;5.434;2023-07-02T07:30:00;8.50;;;2.40;;
71790;SDS011;59638;52.126;5.434;2023-07-02T07:32:27;10.85;;;2.00;;
71790;SDS011;59638;52.126;5.434;2023-07-02T07:34:53;9.57;;;2.33;;
71790;SDS011;59638;52.126;5.434;2023-07-02T07:37:20;15.30;;;2.70;;
71790;SDS011;59638;52.126;5.434;2023-07-02T07:39:46;12.30;;;2.78;;
71790;SDS011;59638;52.126;5.434;2023-07-02T07:42:14;8.17;;;2.30;;
71790;SDS011;59638;52.126;5.434;2023-07-02T07:44:41;6.85;;;2.42;;
71790;SDS011;59638;52.126;5.434;2023-07-02T07:47:08;8.27;;;2.65;;
71790;SDS011;59638;52.126;5.434;2023-07-02T07:49:34;4.93;;;2.20;;
71790;SDS011;59638;52.126;5.434;2023-07-02T07:52:01;6.25;;;1.98;;
71790;SDS011;59638;52.126;5.434;2023-07-02T07:54:29;7.33;;;2.47;;
71790;SDS011;59638;52.126;5.434;2023-07-02T07:56:56;4.78;;;2.20;;
71790;SDS011;59638;52.126;5.434;2023-07-02T07:59:22;5.82;;;2.70;;
71790;SDS011;59638;52.126;5.434;2023-07-02T08:01:48;6.80;;;1.83;;
71790;SDS011;59638;52.126;5.434;2023-07-02T08:04:15;5.82;;;1.88;;
71790;SDS011;59638;52.126;5.434;2023-07-02T08:06:41;8.07;;;2.60;;
71790;SDS011;59638;52.126;5.434;2023-07-02T08:09:10;10.85;;;2.60;;
71790;SDS011;59638;52.126;5.434;2023-07-02T08:11:37;6.97;;;2.20;;
71790;SDS011;59638;52.126;5.434;2023-07-02T08:14:03;7.75;;;2.40;;
71790;SDS011;59638;52.126;5.434;2023-07-02T08:16:30;10.18;;;1.90;;
71790;SDS011;59638;52.126;5.434;2023-07-02T08:18:56;7.50;;;2.07;;
71790;SDS011;59638;52.126;5.434;2023-07-02T08:21:23;5.20;;;2.10;;
71790;SDS011;59638;52.126;5.434;2023-07-02T08:23:49;6.22;;;2.53;;
71790;SDS011;59638;52.126;5.434;2023-07-02T08:26:16;9.90;;;3.10;;
71790;SDS011;59638;52.126;5.434;2023-07-02T08:28:42;9.88;;;2.92;;
71790;SDS011;59638;52.126;5.434;2023-07-02T08:31:08;7.53;;;2.77;;
71790;SDS011;59638;52.126;5.434;2023-07-02T08:33:35;8.95;;;2.58;;
71790;SDS011;59638;52.126;5.434;2023-07-02T08:36:01;7.68;;;2.42;;
71790;SDS011;59638;52.126;5.434;2023-07-02T08:38:28;5.65;;;2.17;;
71790;SDS011;59638;52.126;5.434;2023-07-02T08:40:54;5.00;;;2.55;;
71790;SDS011;59638;52.126;5.434;2023-07-02T08:43:21;6.90;;;1.83;;
71790;SDS011;59638;52.126;5.434;2023-07-02T08:45:51;6.82;;;2.38;;
71790;SDS011;59638;52.126;5.434;2023-07-02T08:48:19;7.78;;;2.67;;
71790;SDS011;59638;52.126;5.434;2023-07-02T08:50:50;5.68;;;2.20;;
71790;SDS011;59638;52.126;5.434;2023-07-02T08:53:18;4.53;;;2.30;;
71790;SDS011;59638;52.126;5.434;2023-07-02T08:55:44;5.97;;;1.63;;
71790;SDS011;59638;52.126;5.434;2023-07-02T08:58:11;5.30;;;2.30;;
71790;SDS011;59638;52.126;5.434;2023-07-02T09:00:37;6.75;;;2.50;;
71790;SDS011;59638;52.126;5.434;2023-07-02T09:03:11;7.63;;;2.00;;
71790;SDS011;59638;52.126;5.434;2023-07-02T09:05:47;7.18;;;2.53;;
71790;SDS011;59638;52.126;5.434;2023-07-02T09:08:22;6.47;;;1.93;;
71790;SDS011;59638;52.126;5.434;2023-07-02T09:10:50;5.90;;;2.65;;
71790;SDS011;59638;52.126;5.434;2023-07-02T09:13:17;7.18;;;2.10;;
71790;SDS011;59638;52.126;5.434;2023-07-02T09:15:43;7.15;;;1.92;;
71790;SDS011;59638;52.126;5.434;2023-07-02T09:18:19;4.50;;;1.92;;
71790;SDS011;59638;52.126;5.434;2023-07-02T09:20:51;5.57;;;1.70;;
71790;SDS011;59638;52.126;5.434;2023-07-02T09:23:20;5.30;;;1.70;;
71790;SDS011;59638;52.126;5.434;2023-07-02T09:25:47;3.65;;;1.75;;
71790;SDS011;59638;52.126;5.434;2023-07-02T09:28:20;5.00;;;1.90;;
71790;SDS011;59638;52.126;5.434;2023-07-02T09:30:58;8.15;;;1.35;;
71790;SDS011;59638;52.126;5.434;2023-07-02T09:33:25;3.57;;;1.43;;
71790;SDS011;59638;52.126;5.434;2023-07-02T09:35:52;5.53;;;1.55;;
71790;SDS011;59638;52.126;5.434;2023-07-02T09:38:20;5.93;;;1.30;;
71790;SDS011;59638;52.126;5.434;2023-07-02T09:40:48;3.08;;;1.05;;
71790;SDS011;59638;52.126;5.434;2023-07-02T09:43:17;5.95;;;1.30;;
71790;SDS011;59638;52.126;5.434;2023-07-02T09:45:47;4.83;;;1.10;;
71790;SDS011;59638;52.126;5.434;2023-07-02T09:48:16;3.00;;;1.13;;
71790;SDS011;59638;52.126;5.434;2023-07-02T09:50:44;8.13;;;1.17;;
71790;SDS011;59638;52.126;5.434;2023-07-02T09:53:12;7.28;;;1.38;;
71790;SDS011;59638;52.126;5.434;2023-07-02T09:55:39;2.72;;;1.05;;
71790;SDS011;59638;52.126;5.434;2023-07-02T09:58:07;3.67;;;0.83;;
71790;SDS011;59638;52.126;5.434;2023-07-02T10:00:34;2.35;;;0.82;;
71790;SDS011;59638;52.126;5.434;2023-07-02T10:03:01;2.53;;;0.80;;
71790;SDS011;59638;52.126;5.434;2023-07-02T10:05:28;3.10;;;0.90;;
71790;SDS011;59638;52.126;5.434;2023-07-02T10:07:56;3.25;;;0.82;;
71790;SDS011;59638;52.126;5.434;2023-07-02T10:10:30;7.07;;;1.17;;
71790;SDS011;59638;52.126;5.434;2023-07-02T10:12:57;2.60;;;0.52;;
71790;SDS011;59638;52.126;5.434;2023-07-02T10:15:25;4.18;;;1.20;;
71790;SDS011;59638;52.126;5.434;2023-07-02T10:17:56;5.63;;;1.33;;
71790;SDS011;59638;52.126;5.434;2023-07-02T10:20:34;3.72;;;1.08;;
71790;SDS011;59638;52.126;5.434;2023-07-02T10:23:02;2.90;;;1.73;;
71790;SDS011;59638;52.126;5.434;2023-07-02T10:25:31;3.05;;;1.15;;
71790;SDS011;59638;52.126;5.434;2023-07-02T10:28:00;4.32;;;0.93;;
71790;SDS011;59638;52.126;5.434;2023-07-02T10:35:40;3.07;;;1.10;;
71790;SDS011;59638;52.126;5.434;2023-07-02T10:38:13;2.72;;;0.85;;
71790;SDS011;59638;52.126;5.434;2023-07-02T10:40:42;1.85;;;1.15;;
71790;SDS011;59638;52.126;5.434;2023-07-02T10:43:09;1.88;;;1.00;;
71790;SDS011;59638;52.126;5.434;2023-07-02T10:45:36;2.90;;;0.80;;
71790;SDS011;59638;52.126;5.434;2023-07-02T10:48:03;2.23;;;0.90;;
71790;SDS011;59638;52.126;5.434;2023-07-02T10:50:31;5.32;;;1.20;;
71790;SDS011;59638;52.126;5.434;2023-07-02T10:53:00;3.42;;;0.80;;
71790;SDS011;59638;52.126;5.434;2023-07-02T10:55:27;2.70;;;0.88;;
71790;SDS011;59638;52.126;5.434;2023-07-02T10:58:06;4.22;;;1.38;;
71790;SDS011;59638;52.126;5.434;2023-07-02T11:00:48;3.30;;;1.17;;
71790;SDS011;59638;52.126;5.434;2023-07-02T11:03:16;3.55;;;1.40;;
71790;SDS011;59638;52.126;5.434;2023-07-02T11:05:47;2.10;;;1.15;;
71790;SDS011;59638;52.126;5.434;2023-07-02T11:08:15;4.15;;;1.30;;
71790;SDS011;59638;52.126;5.434;2023-07-02T11:10:42;3.83;;;1.27;;
71790;SDS011;59638;52.126;5.434;2023-07-02T11:13:10;2.70;;;1.30;;
71790;SDS011;59638;52.126;5.434;2023-07-02T11:15:40;4.05;;;1.77;;
71790;SDS011;59638;52.126;5.434;2023-07-02T11:18:11;5.50;;;1.60;;
71790;SDS011;59638;52.126;5.434;2023-07-02T11:20:40;9.77;;;3.30;;
71790;SDS011;59638;52.126;5.434;2023-07-02T11:23:17;6.85;;;1.23;;
71790;SDS011;59638;52.126;5.434;2023-07-02T11:25:54;6.70;;;1.53;;
71790;SDS011;59638;52.126;5.434;2023-07-02T11:28:23;5.35;;;1.20;;
71790;SDS011;59638;52.126;5.434;2023-07-02T11:30:50;4.45;;;1.45;;
71790;SDS011;59638;52.126;5.434;2023-07-02T11:33:17;2.47;;;1.08;;
71790;SDS011;59638;52.126;5.434;2023-07-02T11:35:43;2.85;;;0.95;;
71790;SDS011;59638;52.126;5.434;2023-07-02T11:38:10;2.80;;;1.00;;
71790;SDS011;59638;52.126;5.434;2023-07-02T11:40:37;4.35;;;0.77;;
71790;SDS011;59638;52.126;5.434;2023-07-02T11:43:03;3.22;;;1.05;;
71790;SDS011;59638;52.126;5.434;2023-07-02T11:45:30;2.88;;;1.40;;
71790;SDS011;59638;52.126;5.434;2023-07-02T11:47:56;4.25;;;1.65;;
71790;SDS011;59638;52.126;5.434;2023-07-02T11:50:23;5.77;;;1.90;;
71790;SDS011;59638;52.126;5.434;2023-07-02T11:52:52;5.30;;;1.83;;
71790;SDS011;59638;52.126;5.434;2023-07-02T11:55:19;3.65;;;1.80;;
71790;SDS011;59638;52.126;5.434;2023-07-02T11:57:46;2.42;;;1.42;;
71790;SDS011;59638;52.126;5.434;2023-07-02T12:00:13;5.43;;;2.45;;
71790;SDS011;59638;52.126;5.434;2023-07-02T12:02:40;2.90;;;1.30;;
71790;SDS011;59638;52.126;5.434;2023-07-02T12:05:07;4.68;;;1.75;;
71790;SDS011;59638;52.126;5.434;2023-07-02T12:07:37;6.97;;;1.40;;
71790;SDS011;59638;52.126;5.434;2023-07-02T12:10:04;5.60;;;1.58;;
71790;SDS011;59638;52.126;5.434;2023-07-02T12:12:31;2.90;;;1.25;;
71790;SDS011;59638;52.126;5.434;2023-07-02T12:14:58;7.10;;;1.27;;
71790;SDS011;59638;52.126;5.434;2023-07-02T12:17:24;6.20;;;1.50;;
71790;SDS011;59638;52.126;5.434;2023-07-02T12:19:51;5.03;;;1.50;;
71790;SDS011;59638;52.126;5.434;2023-07-02T12:22:17;3.30;;;1.48;;
71790;SDS011;59638;52.126;5.434;2023-07-02T12:24:44;5.82;;;1.17;;
71790;SDS011;59638;52.126;5.434;2023-07-02T12:27:11;6.50;;;1.53;;
71790;SDS011;59638;52.126;5.434;2023-07-02T12:29:37;3.58;;;1.23;;
71790;SDS011;59638;52.126;5.434;2023-07-02T12:32:04;3.97;;;1.20;;
71790;SDS011;59638;52.126;5.434;2023-07-02T12:34:31;2.95;;;1.63;;
71790;SDS011;59638;52.126;5.434;2023-07-02T12:36:58;3.60;;;1.48;;
71790;SDS011;59638;52.126;5.434;2023-07-02T12:39:24;2.70;;;1.60;;
71790;SDS011;59638;52.126;5.434;2023-07-02T12:41:51;6.45;;;1.98;;
71790;SDS011;59638;52.126;5.434;2023-07-02T12:44:17;3.80;;;1.70;;
71790;SDS011;59638;52.126;5.434;2023-07-02T12:46:44;5.13;;;1.17;;
71790;SDS011;59638;52.126;5.434;2023-07-02T12:49:10;7.13;;;1.90;;
71790;SDS011;59638;52.126;5.434;2023-07-02T12:51:37;4.37;;;1.63;;
71790;SDS011;59638;52.126;5.434;2023-07-02T12:54:03;4.15;;;1.60;;
71790;SDS011;59638;52.126;5.434;2023-07-02T12:56:30;5.07;;;1.58;;
71790;SDS011;59638;52.126;5.434;2023-07-02T12:58:56;5.40;;;1.48;;
71790;SDS011;59638;52.126;5.434;2023-07-02T13:01:23;4.97;;;1.58;;
71790;SDS011;59638;52.126;5.434;2023-07-02T13:03:50;5.53;;;1.77;;
71790;SDS011;59638;52.126;5.434;2023-07-02T13:06:17;7.68;;;2.20;;
71790;SDS011;59638;52.126;5.434;2023-07-02T13:08:43;4.03;;;2.22;;
71790;SDS011;59638;52.126;5.434;2023-07-02T13:11:10;5.65;;;1.60;;
71790;SDS011;59638;52.126;5.434;2023-07-02T13:13:36;3.97;;;1.65;;
71790;SDS011;59638;52.126;5.434;2023-07-02T13:16:03;4.37;;;1.77;;
71790;SDS011;59638;52.126;5.434;2023-07-02T13:18:30;5.15;;;1.73;;
71790;SDS011;59638;52.126;5.434;2023-07-02T13:20:56;4.28;;;1.85;;
71790;SDS011;59638;52.126;5.434;2023-07-02T13:23:23;3.95;;;1.50;;
71790;SDS011;59638;52.126;5.434;2023-07-02T13:25:49;3.65;;;1.60;;
71790;SDS011;59638;52.126;5.434;2023-07-02T13:28:16;3.93;;;1.37;;
71790;SDS011;59638;52.126;5.434;2023-07-02T13:30:43;3.03;;;1.40;;
71790;SDS011;59638;52.126;5.434;2023-07-02T13:33:09;3.20;;;1.60;;
71790;SDS011;59638;52.126;5.434;2023-07-02T13:35:36;3.95;;;1.23;;
71790;SDS011;59638;52.126;5.434;2023-07-02T13:38:04;7.97;;;1.70;;
71790;SDS011;59638;52.126;5.434;2023-07-02T13:40:31;2.43;;;1.10;;
71790;SDS011;59638;52.126;5.434;2023-07-02T13:42:58;6.07;;;1.10;;
71790;SDS011;59638;52.126;5.434;2023-07-02T13:45:24;2.60;;;1.45;;
71790;SDS011;59638;52.126;5.434;2023-07-02T13:47:51;3.63;;;1.63;;
71790;SDS011;59638;52.126;5.434;2023-07-02T13:50:17;5.00;;;1.40;;
71790;SDS011;59638;52.126;5.434;2023-07-02T13:52:44;2.33;;;0.80;;
71790;SDS011;59638;52.126;5.434;2023-07-02T13:55:12;4.03;;;1.33;;
71790;SDS011;59638;52.126;5.434;2023-07-02T13:57:38;4.07;;;1.42;;
71790;SDS011;59638;52.126;5.434;2023-07-02T14:00:05;5.43;;;1.67;;
71790;SDS011;59638;52.126;5.434;2023-07-02T14:02:32;12.13;;;2.05;;
71790;SDS011;59638;52.126;5.434;2023-07-02T14:04:59;4.90;;;1.80;;
71790;SDS011;59638;52.126;5.434;2023-07-02T14:07:26;7.85;;;1.58;;
71790;SDS011;59638;52.126;5.434;2023-07-02T14:09:53;5.57;;;1.45;;
71790;SDS011;59638;52.126;5.434;2023-07-02T14:12:21;2.95;;;1.33;;
71790;SDS011;59638;52.126;5.434;2023-07-02T14:14:48;4.20;;;1.63;;
71790;SDS011;59638;52.126;5.434;2023-07-02T14:17:14;3.33;;;1.53;;
71790;SDS011;59638;52.126;5.434;2023-07-02T14:19:41;5.65;;;1.40;;
71790;SDS011;59638;52.126;5.434;2023-07-02T14:22:07;5.65;;;2.10;;
71790;SDS011;59638;52.126;5.434;2023-07-02T14:24:34;9.10;;;2.00;;
71790;SDS011;59638;52.126;5.434;2023-07-02T14:27:00;6.03;;;2.50;;
71790;SDS011;59638;52.126;5.434;2023-07-02T14:29:27;6.50;;;2.23;;
71790;SDS011;59638;52.126;5.434;2023-07-02T14:31:53;5.60;;;1.65;;
71790;SDS011;59638;52.126;5.434;2023-07-02T14:34:20;6.93;;;2.30;;
71790;SDS011;59638;52.126;5.434;2023-07-02T14:36:47;4.80;;;2.00;;
71790;SDS011;59638;52.126;5.434;2023-07-02T14:39:14;4.00;;;2.13;;
71790;SDS011;59638;52.126;5.434;2023-07-02T14:41:40;4.83;;;1.73;;
71790;SDS011;59638;52.126;5.434;2023-07-02T14:44:07;7.20;;;2.42;;
71790;SDS011;59638;52.126;5.434;2023-07-02T14:46:33;3.95;;;1.92;;
71790;SDS011;59638;52.126;5.434;2023-07-02T14:49:00;3.22;;;1.27;;
71790;SDS011;59638;52.126;5.434;2023-07-02T14:51:26;4.88;;;2.38;;
71790;SDS011;59638;52.126;5.434;2023-07-02T14:53:53;7.63;;;2.20;;